createdAt,value
2023-08-03T00:02:48.987Z,15.510254
2023-08-03T00:06:14.041Z,15.540466
2023-08-03T00:09:39.216Z,15.500183
2023-08-03T00:13:04.411Z,15.510254
2023-08-03T00:16:29.618Z,15.540466
2023-08-03T00:19:54.846Z,15.59082
2023-08-03T00:23:20.013Z,15.600891
2023-08-03T00:26:45.161Z,15.651245
2023-08-03T00:30:10.348Z,15.641174
2023-08-03T00:33:35.518Z,15.671387
2023-08-03T00:37:00.752Z,15.691528
2023-08-03T00:40:25.896Z,15.671387
2023-08-03T00:43:51.070Z,15.671387
2023-08-03T00:47:16.260Z,15.681458
2023-08-03T00:50:41.437Z,15.671387
2023-08-03T00:54:06.668Z,15.651245
2023-08-03T00:57:31.852Z,15.621033
2023-08-03T01:00:57.079Z,15.651245
2023-08-03T01:04:22.266Z,15.671387
2023-08-03T01:07:47.485Z,15.651245
2023-08-03T01:11:12.697Z,15.671387
2023-08-03T01:14:37.858Z,15.641174
2023-08-03T01:18:03.161Z,15.621033
2023-08-03T01:21:28.242Z,15.540466
2023-08-03T01:24:53.441Z,15.540466
2023-08-03T01:28:18.665Z,15.560608
2023-08-03T01:31:43.946Z,15.4599
2023-08-03T01:35:09.013Z,15.500183
2023-08-03T01:38:34.181Z,15.500183
2023-08-03T01:41:59.457Z,15.469971
2023-08-03T01:45:24.715Z,15.4599
2023-08-03T01:48:49.860Z,15.4599
2023-08-03T01:52:15.049Z,15.439758
2023-08-03T01:55:40.216Z,15.469971
2023-08-03T01:59:05.420Z,15.439758
2023-08-03T02:02:30.701Z,15.389404
2023-08-03T02:05:55.798Z,15.318909
2023-08-03T02:09:20.974Z,15.288696
2023-08-03T02:12:46.199Z,15.268555
2023-08-03T02:16:19.282Z,15.268555
2023-08-03T02:19:38.380Z,15.248413
2023-08-03T02:23:01.819Z,15.33905
2023-08-03T02:26:27.009Z,15.33905
2023-08-03T02:29:52.238Z,15.318909
2023-08-03T02:33:17.443Z,15.318909
2023-08-03T02:36:42.673Z,15.33905
2023-08-03T02:40:07.865Z,15.308838
2023-08-03T02:43:33.076Z,15.308838
2023-08-03T02:46:58.281Z,15.20813
2023-08-03T02:50:23.461Z,15.248413
2023-08-03T02:53:48.686Z,15.20813
2023-08-03T02:57:13.837Z,15.278625
2023-08-03T03:00:41.114Z,15.248413
2023-08-03T03:04:06.312Z,15.268555
2023-08-03T03:07:31.482Z,15.20813
2023-08-03T03:10:56.729Z,15.187988
2023-08-03T03:14:21.878Z,15.167847
2023-08-03T03:17:47.134Z,15.198059
2023-08-03T03:21:12.265Z,15.268555
2023-08-03T03:24:37.431Z,15.228271
2023-08-03T03:28:02.650Z,15.228271
2023-08-03T03:31:27.980Z,15.20813
2023-08-03T03:34:53.173Z,15.278625
2023-08-03T03:38:18.370Z,15.228271
2023-08-03T03:41:43.988Z,15.167847
2023-08-03T03:45:08.772Z,15.137634
2023-08-03T03:48:33.976Z,15.107422
2023-08-03T03:51:59.086Z,15.107422
2023-08-03T03:55:24.260Z,15.137634
2023-08-03T03:58:49.476Z,15.137634
2023-08-03T04:02:14.769Z,15.157776
2023-08-03T04:05:39.834Z,15.20813
2023-08-03T04:09:05.030Z,15.268555
2023-08-03T04:12:30.222Z,15.288696
2023-08-03T04:15:55.399Z,15.288696
2023-08-03T04:19:20.626Z,15.288696
2023-08-03T04:22:46.902Z,15.278625
2023-08-03T04:26:11.067Z,15.288696
2023-08-03T04:29:36.264Z,15.318909
2023-08-03T04:33:01.470Z,15.349121
2023-08-03T04:36:26.694Z,15.33905
2023-08-03T04:39:51.838Z,15.379333
2023-08-03T04:43:17.038Z,15.409546
2023-08-03T04:46:42.237Z,15.439758
2023-08-03T04:50:07.422Z,15.429688
2023-08-03T04:53:32.605Z,15.469971
2023-08-03T04:56:58.796Z,15.429688
2023-08-03T05:00:23.242Z,15.490112
2023-08-03T05:03:48.214Z,15.530396
2023-08-03T05:07:13.312Z,15.500183
2023-08-03T05:10:38.525Z,15.4599
2023-08-03T05:14:03.684Z,15.379333
2023-08-03T05:17:28.946Z,15.33905
2023-08-03T05:20:54.079Z,15.308838
2023-08-03T05:24:19.265Z,15.288696
2023-08-03T05:27:44.513Z,15.33905
2023-08-03T05:31:09.710Z,15.359192
2023-08-03T05:34:34.952Z,15.308838
2023-08-03T05:38:00.116Z,15.359192
2023-08-03T05:41:25.374Z,15.409546
2023-08-03T05:44:50.572Z,15.469971
2023-08-03T05:48:15.763Z,15.409546
2023-08-03T05:51:40.970Z,15.490112
2023-08-03T05:55:06.181Z,15.500183
2023-08-03T05:58:31.367Z,15.500183
2023-08-03T06:01:56.631Z,15.540466
2023-08-03T06:05:21.930Z,15.530396
2023-08-03T06:08:46.969Z,15.560608
2023-08-03T06:12:12.142Z,15.530396
2023-08-03T06:15:37.416Z,15.490112
2023-08-03T06:19:02.571Z,15.510254
2023-08-03T06:22:27.735Z,15.540466
2023-08-03T06:25:52.912Z,15.500183
2023-08-03T06:29:18.104Z,15.4599
2023-08-03T06:32:43.337Z,15.4599
2023-08-03T06:36:08.581Z,15.530396
2023-08-03T06:39:33.758Z,15.530396
2023-08-03T06:42:58.965Z,15.560608
2023-08-03T06:46:24.284Z,15.560608
2023-08-03T06:49:49.566Z,15.59082
2023-08-03T06:53:14.838Z,15.600891
2023-08-03T06:56:40.014Z,15.641174
2023-08-03T07:00:05.239Z,15.681458
2023-08-03T07:03:30.564Z,15.641174
2023-08-03T07:06:55.640Z,15.59082
2023-08-03T07:10:20.889Z,15.570679
2023-08-03T07:13:46.071Z,15.59082
2023-08-03T07:17:11.260Z,15.641174
2023-08-03T07:20:36.481Z,15.600891
2023-08-03T07:24:01.696Z,15.530396
2023-08-03T07:27:26.973Z,15.641174
2023-08-03T07:30:52.170Z,15.570679
2023-08-03T07:34:17.302Z,15.59082
2023-08-03T07:37:42.559Z,15.671387
2023-08-03T07:41:07.772Z,15.721741
2023-08-03T07:47:58.253Z,15.903015
2023-08-03T07:51:24.598Z,15.943298
2023-08-03T07:54:48.564Z,15.933228
2023-08-03T07:58:13.760Z,15.973511
2023-08-03T08:01:39.051Z,15.973511
2023-08-03T08:05:04.203Z,16.023865
2023-08-03T08:08:29.385Z,16.023865
2023-08-03T08:11:54.600Z,15.923157
2023-08-03T08:15:19.780Z,15.892944
2023-08-03T08:18:45.032Z,15.872803
2023-08-03T08:22:16.122Z,15.83252
2023-08-03T08:25:35.516Z,15.802307
2023-08-03T08:29:04.978Z,15.751953
2023-08-03T08:32:25.903Z,15.71167
2023-08-03T08:35:51.043Z,15.741882
2023-08-03T08:39:16.271Z,15.691528
2023-08-03T08:42:41.487Z,15.751953
2023-08-03T08:46:06.631Z,15.862732
2023-08-03T08:59:47.483Z,15.872803
2023-08-03T09:03:12.838Z,15.84259
2023-08-03T09:06:37.972Z,15.892944
2023-08-03T09:10:03.220Z,15.923157
2023-08-03T09:13:28.375Z,16.003723
2023-08-03T09:16:53.644Z,16.013794
2023-08-03T09:27:09.238Z,16.044006
2023-08-03T09:30:37.274Z,15.973511
2023-08-03T09:33:59.704Z,16.08429
2023-08-03T09:37:45.157Z,16.08429
2023-08-03T09:40:50.145Z,16.144714
2023-08-03T09:44:15.418Z,16.195068
2023-08-03T09:47:40.672Z,16.235352
2023-08-03T09:51:05.913Z,16.245422
2023-08-03T09:54:31.258Z,16.265564
2023-08-03T09:57:56.490Z,16.275635
2023-08-03T10:01:21.791Z,16.275635
2023-08-03T10:04:46.986Z,16.33606
2023-08-03T10:08:12.201Z,16.456909
2023-08-03T10:11:37.523Z,16.748962
2023-08-03T10:15:02.750Z,16.980591
2023-08-03T10:18:49.951Z,16.980591
2023-08-03T10:22:03.707Z,17.071228
2023-08-03T10:25:34.569Z,17.111511
2023-08-03T10:29:00.295Z,16.97052
2023-08-03T10:32:25.538Z,16.980591
2023-08-03T10:35:50.812Z,17.000732
2023-08-03T10:39:15.982Z,16.829529
2023-08-03T10:42:41.239Z,16.698608
2023-08-03T10:46:06.660Z,16.607971
2023-08-03T10:49:31.704Z,16.426697
2023-08-03T10:52:56.989Z,16.235352
2023-08-03T10:56:22.191Z,16.124573
2023-08-03T10:59:47.691Z,16.044006
2023-08-03T11:03:13.477Z,15.923157
2023-08-03T11:06:38.689Z,15.872803
2023-08-03T11:10:04.008Z,15.872803
2023-08-03T11:13:29.234Z,15.84259
2023-08-03T11:16:54.459Z,15.83252
2023-08-03T11:20:19.776Z,15.762024
2023-08-03T11:23:44.970Z,15.751953
2023-08-03T11:27:10.242Z,15.84259
2023-08-03T11:30:35.469Z,15.872803
2023-08-03T11:34:00.798Z,16.023865
2023-08-03T11:37:25.985Z,16.144714
2023-08-03T11:40:51.267Z,16.205139
2023-08-03T11:44:16.542Z,16.245422
2023-08-03T11:47:43.853Z,16.245422
2023-08-03T11:51:06.980Z,16.406555
2023-08-03T11:54:32.257Z,16.628113
2023-08-03T12:01:22.790Z,16.879883
2023-08-03T12:04:50.729Z,16.940308
2023-08-03T12:08:20.976Z,17.111511
2023-08-03T12:15:11.690Z,17.22229
2023-08-03T12:18:36.955Z,17.383423
2023-08-03T12:25:31.063Z,17.705688
2023-08-03T12:28:52.665Z,17.967529
2023-08-03T12:32:17.920Z,18.168945
2023-08-03T12:35:43.192Z,18.118591
2023-08-03T12:39:10.192Z,18.078308
2023-08-03T12:42:33.736Z,18.068237
2023-08-03T12:45:58.977Z,18.138733
2023-08-03T12:49:24.150Z,18.118591
2023-08-03T12:52:49.496Z,18.068237
2023-08-03T12:56:14.720Z,17.947388
2023-08-03T12:59:39.947Z,18.068237
2023-08-03T13:03:05.212Z,18.078308
2023-08-03T13:06:30.395Z,17.947388
2023-08-03T13:09:55.752Z,17.897034
2023-08-03T13:13:20.887Z,17.886963
2023-08-03T13:16:46.443Z,18.027954
2023-08-03T13:20:11.499Z,18.179016
2023-08-03T13:23:36.746Z,18.179016
2023-08-03T13:27:02.023Z,18.209229
2023-08-03T13:30:27.277Z,18.299866
2023-08-03T13:33:52.532Z,18.330078
2023-08-03T13:37:17.777Z,18.390503
2023-08-03T13:40:43.037Z,18.420715
2023-08-03T13:44:08.369Z,18.471069
2023-08-03T13:47:33.598Z,18.360291
2023-08-03T13:51:01.504Z,18.390503
2023-08-03T13:54:26.716Z,18.48114
2023-08-03T13:58:04.518Z,18.581848
2023-08-03T14:01:17.235Z,18.581848
2023-08-03T14:04:42.577Z,18.471069
2023-08-03T14:08:07.909Z,18.35022
2023-08-03T14:11:58.509Z,18.22937
2023-08-03T14:14:58.200Z,18.22937
2023-08-03T14:21:58.920Z,18.22937
2023-08-03T14:32:04.353Z,17.987671
2023-08-03T14:38:54.907Z,17.745972
2023-08-03T14:42:20.163Z,17.85675
2023-08-03T14:45:47.284Z,17.957458
2023-08-03T14:49:11.754Z,17.886963
2023-08-03T14:52:35.965Z,17.816467
2023-08-03T14:59:26.358Z,17.866821
2023-08-03T15:02:51.830Z,17.745972
2023-08-03T15:06:16.880Z,17.806396
2023-08-03T15:09:42.081Z,17.85675
2023-08-03T15:50:32.206Z,17.806396
2023-08-03T15:54:02.614Z,17.715759
2023-08-03T15:57:21.198Z,17.615051
2023-08-03T16:00:46.295Z,17.655334
2023-08-03T16:04:11.756Z,17.615051
2023-08-03T16:07:37.026Z,17.695618
2023-08-03T16:11:02.154Z,17.776184
2023-08-03T16:14:27.349Z,17.85675
2023-08-03T16:17:52.599Z,17.927246
2023-08-03T16:21:17.850Z,17.967529
2023-08-03T16:24:43.042Z,18.048096
2023-08-03T16:28:08.373Z,18.09845
2023-08-03T16:31:38.052Z,18.168945
2023-08-03T16:35:02.331Z,18.078308
2023-08-03T16:38:23.940Z,17.897034
2023-08-03T16:41:49.145Z,17.897034
2023-08-03T16:45:14.475Z,17.866821
2023-08-03T16:48:40.997Z,17.917175
2023-08-03T16:52:04.959Z,17.927246
2023-08-03T16:55:30.207Z,17.917175
2023-08-03T16:58:55.401Z,17.806396
2023-08-03T17:02:20.640Z,17.766113
2023-08-03T17:05:45.946Z,17.776184
2023-08-03T17:09:11.297Z,17.776184
2023-08-03T17:12:36.857Z,17.776184
2023-08-03T17:16:02.105Z,17.745972
2023-08-03T17:19:27.309Z,17.705688
2023-08-03T17:22:52.537Z,17.695618
2023-08-03T17:26:17.798Z,17.735901
2023-08-03T17:29:43.059Z,17.735901
2023-08-03T17:33:19.668Z,17.735901
2023-08-03T17:36:45.541Z,17.695618
2023-08-03T17:40:12.568Z,17.635193
2023-08-03T17:43:37.217Z,17.584839
2023-08-03T17:47:02.504Z,17.514343
2023-08-03T17:50:27.718Z,17.463989
2023-08-03T17:53:52.932Z,17.383423
2023-08-03T17:57:29.140Z,17.373352
2023-08-03T18:00:54.558Z,17.262573
2023-08-03T18:04:20.383Z,17.252502
2023-08-03T18:07:46.458Z,17.182007
2023-08-03T18:11:56.963Z,17.111511
2023-08-03T18:15:23.261Z,17.111511
2023-08-03T18:19:01.845Z,17.041016
2023-08-03T18:22:26.230Z,16.97052
2023-08-03T18:26:03.290Z,16.97052
2023-08-03T18:29:48.110Z,16.97052
2023-08-03T18:33:13.581Z,16.930237
2023-08-03T18:36:38.860Z,16.829529
2023-08-03T18:40:08.249Z,16.819458
2023-08-03T18:43:33.446Z,16.779175
2023-08-03T18:47:02.730Z,16.789246
2023-08-03T18:50:27.982Z,16.759033
2023-08-03T18:53:53.200Z,16.759033
2023-08-03T18:57:18.502Z,16.748962
2023-08-03T19:00:43.683Z,16.748962
2023-08-03T19:04:08.974Z,16.708679
2023-08-03T19:07:34.209Z,16.668396
2023-08-03T19:10:59.410Z,16.607971
2023-08-03T19:14:24.690Z,16.668396
2023-08-03T19:17:49.979Z,16.628113
2023-08-03T19:21:15.155Z,16.567688
2023-08-03T19:24:40.359Z,16.477051
2023-08-03T19:28:05.559Z,16.446838
2023-08-03T19:31:30.892Z,16.416626
2023-08-03T19:34:56.015Z,16.406555
2023-08-03T19:38:21.298Z,16.406555
2023-08-03T19:41:46.492Z,16.376343
2023-08-03T19:45:11.802Z,16.295776
2023-08-03T19:48:49.174Z,16.275635
2023-08-03T20:09:35.282Z,16.174927
2023-08-03T20:19:50.996Z,16.144714
2023-08-03T20:23:16.290Z,16.114502
2023-08-03T20:30:06.618Z,16.114502
2023-08-03T20:33:31.805Z,16.09436
2023-08-03T20:36:56.962Z,16.114502
2023-08-03T20:40:47.750Z,16.144714
2023-08-03T20:44:15.649Z,16.174927
2023-08-03T20:57:28.204Z,16.174927
2023-08-03T21:00:53.397Z,16.144714
2023-08-03T21:04:18.600Z,16.154785
2023-08-03T21:07:43.763Z,16.054077
2023-08-03T21:11:08.920Z,15.96344
2023-08-03T21:14:34.141Z,15.943298
2023-08-03T21:17:59.323Z,15.973511
2023-08-03T21:21:24.486Z,15.96344
2023-08-03T21:24:49.678Z,16.013794
2023-08-03T21:28:14.865Z,16.003723
2023-08-03T21:31:40.078Z,15.933228
2023-08-03T21:35:05.223Z,15.862732
2023-08-03T21:38:30.388Z,15.84259
2023-08-03T21:41:55.596Z,15.84259
2023-08-03T21:45:20.754Z,15.71167
2023-08-03T21:48:46.005Z,15.671387
2023-08-03T21:52:11.130Z,15.681458
2023-08-03T21:55:36.327Z,15.681458
2023-08-03T21:59:01.505Z,15.691528
2023-08-03T22:02:26.757Z,15.671387
2023-08-03T22:05:51.907Z,15.621033
2023-08-03T22:09:17.117Z,15.59082
2023-08-03T22:12:42.271Z,15.59082
2023-08-03T22:16:07.486Z,15.530396
2023-08-03T22:19:32.654Z,15.530396
2023-08-03T22:22:57.902Z,15.59082
2023-08-03T22:26:23.064Z,15.641174
2023-08-03T22:29:48.319Z,15.560608
2023-08-03T22:33:13.528Z,15.570679
2023-08-03T22:36:38.727Z,15.530396
2023-08-03T22:40:03.939Z,15.570679
2023-08-03T22:43:29.115Z,15.540466
2023-08-03T22:46:54.462Z,15.500183
2023-08-03T22:50:19.649Z,15.429688
2023-08-03T22:53:44.865Z,15.379333
2023-08-03T22:57:10.096Z,15.359192
2023-08-03T23:00:35.264Z,15.379333
2023-08-03T23:04:00.539Z,15.409546
2023-08-03T23:07:25.609Z,15.439758
2023-08-03T23:10:50.789Z,15.510254
2023-08-03T23:14:16.038Z,15.530396
2023-08-03T23:17:41.208Z,15.510254
2023-08-03T23:21:06.379Z,15.570679
2023-08-03T23:24:31.567Z,15.621033
2023-08-03T23:27:56.770Z,15.59082
2023-08-03T23:31:22.018Z,15.570679
2023-08-03T23:34:47.184Z,15.540466
2023-08-03T23:38:12.398Z,15.540466
2023-08-03T23:41:37.554Z,15.570679
2023-08-03T23:45:02.763Z,15.570679
2023-08-03T23:48:27.966Z,15.600891
2023-08-03T23:51:53.153Z,15.621033
2023-08-03T23:55:18.359Z,15.600891
2023-08-03T23:58:43.579Z,15.570679
